createdAt,value
2017-09-05T00:00:02.617Z,12.95
2017-09-05T00:05:02.650Z,12.93
2017-09-05T00:10:02.873Z,12.87
2017-09-05T00:15:03.085Z,12.82
2017-09-05T00:20:02.583Z,12.81
2017-09-05T00:25:02.780Z,12.8
2017-09-05T00:30:03.004Z,12.76
2017-09-05T00:35:02.356Z,12.72
2017-09-05T00:40:02.525Z,12.65
2017-09-05T00:45:02.735Z,12.62
2017-09-05T00:50:02.714Z,12.6
2017-09-05T00:55:02.931Z,12.58
2017-09-05T01:00:03.126Z,12.55
2017-09-05T01:05:02.960Z,12.55
2017-09-05T01:10:02.185Z,12.53
2017-09-05T01:15:02.444Z,12.51
2017-09-05T01:20:02.746Z,12.5
2017-09-05T01:25:02.942Z,12.46
2017-09-05T01:30:02.187Z,12.43
2017-09-05T01:40:02.743Z,12.42
2017-09-05T01:45:02.999Z,12.41
2017-09-05T01:50:02.310Z,12.41
2017-09-05T01:55:02.570Z,12.42
2017-09-05T02:00:02.784Z,12.44
2017-09-05T02:05:02.187Z,12.44
2017-09-05T02:10:02.444Z,12.38
2017-09-05T02:15:02.663Z,12.34
2017-09-05T02:20:03.124Z,12.28
2017-09-05T02:25:02.345Z,12.2
2017-09-05T02:30:02.543Z,12.12
2017-09-05T02:35:02.212Z,12.07
2017-09-05T02:40:02.439Z,12.1
2017-09-05T02:45:02.656Z,12.12
2017-09-05T02:50:03.080Z,12.15
2017-09-05T02:55:02.286Z,12.17
2017-09-05T03:00:02.486Z,12.23
2017-09-05T03:05:02.590Z,12.21
2017-09-05T03:10:02.802Z,12.16
2017-09-05T03:15:03.030Z,12.13
2017-09-05T03:20:03.016Z,12.08
2017-09-05T03:25:02.275Z,12.07
2017-09-05T03:30:02.501Z,12.05
2017-09-05T03:35:02.364Z,12.03
2017-09-05T03:40:02.562Z,12.05
2017-09-05T03:45:02.785Z,12.02
2017-09-05T03:50:02.470Z,11.98
2017-09-05T03:55:02.682Z,11.93
2017-09-05T04:00:02.905Z,11.9
2017-09-05T04:05:03.124Z,11.85
2017-09-05T04:10:02.309Z,11.78
2017-09-05T04:15:02.533Z,11.7
2017-09-05T04:20:02.920Z,11.59
2017-09-05T04:25:03.089Z,11.56
2017-09-05T04:30:02.329Z,11.58
2017-09-05T04:35:02.738Z,11.57
2017-09-05T04:40:02.939Z,11.56
2017-09-05T04:45:02.155Z,11.56
2017-09-05T04:50:02.783Z,11.56
2017-09-05T04:55:03.004Z,11.58
2017-09-05T05:00:02.207Z,11.62
2017-09-05T05:05:02.326Z,11.68
2017-09-05T05:10:02.531Z,11.72
2017-09-05T05:15:02.761Z,11.76
2017-09-05T05:20:02.489Z,11.79
2017-09-05T05:25:02.686Z,11.84
2017-09-05T05:30:02.901Z,11.88
2017-09-05T05:35:02.712Z,11.93
2017-09-05T05:40:02.919Z,11.91
2017-09-05T05:45:02.149Z,11.91
2017-09-05T05:50:02.400Z,11.93
2017-09-05T05:55:02.584Z,11.92
2017-09-05T06:00:02.776Z,11.97
2017-09-05T06:05:02.213Z,12.02
2017-09-05T06:10:02.466Z,12.06
2017-09-05T06:15:02.723Z,12.12
2017-09-05T06:20:02.660Z,12.18
2017-09-05T06:25:02.883Z,12.25
2017-09-05T06:30:03.089Z,12.32
2017-09-05T06:35:02.822Z,12.41
2017-09-05T06:40:02.996Z,12.5
2017-09-05T06:45:02.175Z,12.58
2017-09-05T06:50:02.423Z,12.7
2017-09-05T06:55:02.600Z,12.8
2017-09-05T07:00:02.806Z,12.91
2017-09-05T07:05:02.768Z,13.02
2017-09-05T07:10:02.965Z,13.1
2017-09-05T07:15:02.167Z,13.22
2017-09-05T07:20:02.517Z,13.32
2017-09-05T07:25:02.710Z,13.4
2017-09-05T07:30:02.947Z,13.56
2017-09-05T07:35:02.194Z,13.7
2017-09-05T07:40:02.404Z,13.84
2017-09-05T07:45:02.626Z,13.95
2017-09-05T07:50:02.750Z,14.07
2017-09-05T07:55:03.003Z,14.19
2017-09-05T08:00:02.193Z,14.35
2017-09-05T08:05:02.197Z,14.49
2017-09-05T08:10:02.434Z,14.64
2017-09-05T08:15:02.676Z,14.8
2017-09-05T08:20:02.660Z,14.98
2017-09-05T08:25:02.859Z,15.11
2017-09-05T08:30:03.075Z,15.28
2017-09-05T08:35:02.593Z,15.47
2017-09-05T08:40:02.816Z,15.67
2017-09-05T08:45:02.997Z,15.81
2017-09-05T08:50:02.323Z,15.95
2017-09-05T08:55:02.525Z,16.1
2017-09-05T09:00:02.772Z,16.24
2017-09-05T09:05:02.376Z,16.37
2017-09-05T09:10:02.604Z,16.54
2017-09-05T09:15:02.834Z,16.67
2017-09-05T09:20:02.734Z,16.87
2017-09-05T09:25:02.974Z,17.09
2017-09-05T09:30:02.148Z,17.39
2017-09-05T09:35:02.394Z,18.43
2017-09-05T09:40:02.636Z,19.67
2017-09-05T09:45:02.864Z,20.68
2017-09-05T09:50:02.739Z,21.11
2017-09-05T09:55:02.935Z,20.96
2017-09-05T10:00:02.142Z,20.55
2017-09-05T10:05:02.518Z,20.21
2017-09-05T10:10:02.707Z,20.19
2017-09-05T10:15:02.945Z,20.48
2017-09-05T10:20:02.324Z,20.34
2017-09-05T10:25:02.525Z,20.39
2017-09-05T10:30:02.747Z,20.62
2017-09-05T10:35:02.373Z,20.66
2017-09-05T10:40:02.605Z,20.7
2017-09-05T10:45:02.821Z,20.66
2017-09-05T10:50:02.377Z,20.7
2017-09-05T10:55:02.583Z,20.78
2017-09-05T11:00:02.787Z,20.89
2017-09-05T11:05:02.208Z,20.99
2017-09-05T11:10:02.458Z,20.87
2017-09-05T11:15:02.663Z,20.73
2017-09-05T11:20:02.943Z,20.7
2017-09-05T11:25:02.177Z,20.72
2017-09-05T11:30:02.387Z,20.62
2017-09-05T11:35:02.584Z,20.58
2017-09-05T11:40:02.809Z,20.59
2017-09-05T11:45:03.051Z,20.55
2017-09-05T11:50:02.316Z,20.57
2017-09-05T11:55:02.505Z,20.74
2017-09-05T12:00:02.714Z,20.81
2017-09-05T12:05:02.232Z,20.87
2017-09-05T12:10:02.447Z,20.88
2017-09-05T12:15:02.679Z,20.79
2017-09-05T12:20:03.006Z,20.74
2017-09-05T12:25:02.187Z,20.76
2017-09-05T12:30:02.402Z,20.95
2017-09-05T12:35:02.891Z,21.03
2017-09-05T12:40:03.110Z,21.06
2017-09-05T12:45:02.335Z,21.19
2017-09-05T12:50:02.728Z,21.25
2017-09-05T12:55:02.969Z,21.38
2017-09-05T13:00:02.173Z,21.49
2017-09-05T13:05:02.403Z,21.58
2017-09-05T13:10:02.634Z,21.61
2017-09-05T13:15:02.854Z,21.64
2017-09-05T13:20:02.210Z,21.52
2017-09-05T13:25:02.442Z,21.42
2017-09-05T13:30:02.630Z,21.34
2017-09-05T13:35:02.481Z,21.28
2017-09-05T13:40:02.684Z,21.25
2017-09-05T13:45:02.890Z,21.24
2017-09-05T13:50:02.737Z,21.24
2017-09-05T13:55:02.924Z,21.25
2017-09-05T14:00:03.113Z,21.23
2017-09-05T14:05:02.481Z,21.23
2017-09-05T14:10:02.672Z,21.23
2017-09-05T14:15:02.852Z,21.23
2017-09-05T14:20:02.208Z,21.15
2017-09-05T14:25:02.467Z,21.1
2017-09-05T14:30:02.963Z,21.11
2017-09-05T14:35:02.242Z,21.11
2017-09-05T14:40:02.529Z,21.13
2017-09-05T14:45:02.800Z,21.16
2017-09-05T14:50:02.648Z,21.33
2017-09-05T14:55:02.847Z,21.55
2017-09-05T15:00:03.044Z,21.58
2017-09-05T15:05:02.407Z,21.6
2017-09-05T15:10:02.636Z,21.62
2017-09-05T15:15:02.841Z,21.57
2017-09-05T15:20:02.779Z,21.46
2017-09-05T15:25:02.998Z,21.33
2017-09-05T15:30:02.199Z,21.21
2017-09-05T15:35:02.959Z,21.08
2017-09-05T15:40:02.179Z,20.99
2017-09-05T15:45:02.403Z,20.91
2017-09-05T15:50:02.620Z,20.88
2017-09-05T15:55:02.820Z,20.88
2017-09-05T16:00:03.140Z,20.85
2017-09-05T16:05:02.617Z,20.79
2017-09-05T16:10:02.839Z,20.73
2017-09-05T16:15:03.095Z,20.64
2017-09-05T16:20:02.579Z,20.57
2017-09-05T16:25:02.811Z,20.53
2017-09-05T16:30:03.123Z,20.47
2017-09-05T16:35:02.287Z,20.4
2017-09-05T16:40:02.542Z,20.33
2017-09-05T16:45:02.844Z,20.26
2017-09-05T16:50:03.113Z,20.21
2017-09-05T16:55:02.351Z,20.15
2017-09-05T17:00:02.533Z,20.12
2017-09-05T17:05:03.052Z,20.07
2017-09-05T17:10:02.261Z,20.02
2017-09-05T17:15:02.446Z,19.98
2017-09-05T17:20:02.272Z,19.94
2017-09-05T17:25:02.647Z,19.91
2017-09-05T17:30:02.846Z,19.86
2017-09-05T17:35:02.225Z,19.81
2017-09-05T17:40:02.466Z,19.75
2017-09-05T17:45:02.788Z,19.67
2017-09-05T17:50:02.978Z,19.61
2017-09-05T17:55:02.224Z,19.53
2017-09-05T18:00:02.536Z,19.44
2017-09-05T18:05:02.168Z,19.37
2017-09-05T18:10:02.384Z,19.28
2017-09-05T18:15:02.605Z,19.22
2017-09-05T18:20:02.986Z,19.12
2017-09-05T18:25:02.194Z,19.08
2017-09-05T18:30:02.385Z,19.02
2017-09-05T18:35:02.870Z,18.98
2017-09-05T18:40:03.072Z,18.97
2017-09-05T18:45:02.293Z,18.95
2017-09-05T18:50:02.508Z,18.95
2017-09-05T18:55:02.702Z,18.97
2017-09-05T19:00:02.923Z,18.98
2017-09-05T19:05:02.415Z,18.99
2017-09-05T19:10:02.609Z,18.99
2017-09-05T19:15:02.820Z,18.99
2017-09-05T19:20:02.136Z,18.97
2017-09-05T19:25:02.338Z,18.95
2017-09-05T19:30:02.552Z,18.91
2017-09-05T19:35:02.913Z,18.88
2017-09-05T19:40:02.139Z,18.86
2017-09-05T19:45:02.362Z,18.86
2017-09-05T19:50:02.591Z,18.83
2017-09-05T19:55:02.778Z,18.8
2017-09-05T20:00:02.994Z,18.78
2017-09-05T20:05:02.553Z,18.74
2017-09-05T20:10:02.788Z,18.7
2017-09-05T20:15:03.019Z,18.68
2017-09-05T20:20:02.312Z,18.64
2017-09-05T20:25:02.567Z,18.56
2017-09-05T20:30:02.759Z,18.5
2017-09-05T20:35:02.396Z,18.43
2017-09-05T20:40:02.619Z,18.39
2017-09-05T20:45:02.853Z,18.34
2017-09-05T20:50:02.156Z,18.27
2017-09-05T20:55:02.356Z,18.22
2017-09-05T21:00:02.555Z,18.18
2017-09-05T21:05:02.785Z,18.15
2017-09-05T21:10:02.970Z,18.13
2017-09-05T21:15:02.163Z,18.12
2017-09-05T21:20:02.770Z,18.12
2017-09-05T21:25:02.978Z,18.11
2017-09-05T21:30:02.194Z,18.1
2017-09-05T21:35:02.443Z,18.09
2017-09-05T21:40:02.605Z,18.08
2017-09-05T21:45:02.813Z,18.07
2017-09-05T21:50:02.346Z,18.06
2017-09-05T21:55:02.574Z,18.03
2017-09-05T22:00:03.124Z,18.03
2017-09-05T22:05:03.044Z,18.04
2017-09-05T22:10:02.434Z,18.03
2017-09-05T22:15:02.788Z,18.02
2017-09-05T22:20:03.108Z,18.02
2017-09-05T22:25:02.459Z,18.04
2017-09-05T22:30:02.861Z,18.03
2017-09-05T22:35:02.751Z,18.05
2017-09-05T22:40:03.133Z,18.04
2017-09-05T22:45:02.519Z,18.06
2017-09-05T22:50:03.060Z,18.05
2017-09-05T22:55:02.455Z,18.04
2017-09-05T23:00:02.816Z,18.05
2017-09-05T23:05:02.523Z,18.04
2017-09-05T23:10:02.720Z,18.02
2017-09-05T23:15:02.915Z,18
2017-09-05T23:20:02.225Z,17.99
2017-09-05T23:25:02.457Z,17.99
2017-09-05T23:30:02.681Z,17.99
2017-09-05T23:35:02.258Z,17.99
2017-09-05T23:40:02.431Z,17.99
2017-09-05T23:45:02.679Z,17.99
2017-09-05T23:50:03.029Z,18
2017-09-05T23:55:02.239Z,18
